Главная страница
METAR-TAF:

METAR-TAF

Аэропорты :

Мапуту, Мозамбик

широта: 25-55S, долгота: 032-34E, высота над уровнем моря: 39 м

Текущие метеонаблюдения

Эта сводка был подготовлена 38 минут назад, в 11:00 UTC
Ветер 14 Узел от юго-восточный
Температура 33°C
Влажность 53%
Давление 1012 hPa
Видимость 10 км и более
небольшая облачность на высоте 3000 фута

METAR: FQMA 171100Z 13014KT 9999 FEW030 33/22 Q1012 NOSIG

Время: 13:38 (11:38 UTC)

Прогноз

Эта сводка был подготовлена 7 часа и 38 минут назад, в 04:00 UTC
Прогноз действительный с 17-го 06 UTC до 18-го 12 UTC
Ветер 5 Узел от северный
Видимость 10 км и более
Отдельные облака на высоте 2000 фута
изменения
С 17-го 12 UTC до 17-го 14 UTC
Ветер 15 Узел от восточно-северо-восточный
изменения
С 17-го 18 UTC до 17-го 20 UTC
Ветер 10 Узел от восточный с порывами до 20 Узел

TAF: FQMA 170400Z 1706/1812 01005KT 9999 SCT020 BECMG 1712/1714 07015KT BECMG 1718/1720 08010G20KT TX37/1713Z TN24/1803Z

Метеонаблюдения и прогнозы для более 4000 аэропортов (сводки METAR и TAF).

Имеющиеся станции представлены на карте желтыми и красными точками.

Чтобы увидеть название станции, наведите на нее мышь.

Затем щелкните, чтобы увидеть метеонаблюдения и метеопрогнозы.

Управление картой: чтобы увеличить масштаб, щелкните зеленые кнопки с черным крестиком; чтобы уменьшить масштаб, щелкните зеленую кнопку с тире; для просмотра соседних карт щелкайте зеленые стрелки.


METAR-TAF: